Time;durP1;ratioP1;P1;durP2;ratioP2;P2;SDS_P1;SDS_P2;PMS_P1;PMS_P2;Temp;Humidity;BMP_temperature;BMP_pressure;BME280_temperature;BME280_humidity;BME280_pressure;Samples;Min_cycle;Max_cycle;Signal;HPM_P1;HPM_P2
2023/04/09 00:00:38;;;;;;;11.82;8.27;;;;;;;7.00;100.00;100974.88;5050771;28;20040;-73
2023/04/09 00:03:03;;;;;;;11.80;7.68;;;;;;;6.99;100.00;100969.66;5050704;28;20043;-67
2023/04/09 00:05:29;;;;;;;11.73;7.68;;;;;;;6.94;100.00;100960.00;5050746;28;20037;-66
2023/04/09 00:07:55;;;;;;;11.93;8.30;;;;;;;6.97;100.00;100952.47;5050209;28;20118;-71
2023/04/09 00:10:20;;;;;;;12.82;8.23;;;;;;;6.96;100.00;100950.69;5047691;28;20110;-67
2023/04/09 00:12:45;;;;;;;13.15;8.70;;;;;;;7.02;100.00;100963.03;5050449;28;20044;-70
2023/04/09 00:15:11;;;;;;;13.32;8.25;;;;;;;6.99;100.00;100965.41;5050521;28;20052;-70
2023/04/09 00:17:36;;;;;;;14.23;7.80;;;;;;;7.20;100.00;100959.75;5050199;28;20037;-73
2023/04/09 00:20:03;;;;;;;12.30;8.27;;;;;;;7.27;100.00;100964.47;5050382;28;20044;-69
2023/04/09 00:22:29;;;;;;;12.70;8.63;;;;;;;7.36;100.00;100966.69;5050442;28;20036;-69
2023/04/09 00:24:54;;;;;;;10.27;7.20;;;;;;;7.25;100.00;100963.47;5050388;28;20029;-70
2023/04/09 00:27:19;;;;;;;11.95;8.00;;;;;;;7.23;100.00;100971.09;5050545;28;20036;-66
2023/04/09 00:29:46;;;;;;;13.77;8.43;;;;;;;7.16;100.00;100973.22;5031486;28;20041;-69
2023/04/09 00:32:12;;;;;;;11.65;8.32;;;;;;;7.06;100.00;100957.25;5050132;28;20029;-66
2023/04/09 00:34:37;;;;;;;15.27;8.75;;;;;;;7.19;100.00;100969.16;5049347;28;20037;-67
2023/04/09 00:37:03;;;;;;;15.68;9.07;;;;;;;7.17;100.00;100965.59;5049674;28;20120;-67
2023/04/09 00:39:29;;;;;;;18.88;8.95;;;;;;;7.09;100.00;100966.81;5050097;28;20025;-70
2023/04/09 00:41:59;;;;;;;14.32;8.73;;;;;;;7.05;100.00;100964.88;5050222;28;20479;-69
2023/04/09 00:44:25;;;;;;;17.10;9.18;;;;;;;6.99;100.00;100972.22;5050225;28;20044;-67
2023/04/09 00:46:51;;;;;;;14.75;9.10;;;;;;;6.96;100.00;100968.66;5050391;28;20499;-70
2023/04/09 00:49:17;;;;;;;14.40;8.02;;;;;;;6.88;100.00;100951.94;5050516;28;20068;-69
2023/04/09 00:51:44;;;;;;;13.40;9.02;;;;;;;6.90;100.00;100964.84;5049894;28;20080;-67
2023/04/09 00:54:10;;;;;;;14.45;8.90;;;;;;;6.74;100.00;100953.69;5049994;28;20041;-70
2023/04/09 00:56:36;;;;;;;14.15;8.15;;;;;;;6.23;100.00;100896.75;5049648;28;20139;-71
2023/04/09 00:59:01;;;;;;;14.70;8.50;;;;;;;6.62;100.00;100963.22;5050003;28;20095;-70
2023/04/09 01:01:27;;;;;;;15.70;9.10;;;;;;;6.60;100.00;100945.16;5049708;28;20033;-69
2023/04/09 01:03:53;;;;;;;13.85;9.25;;;;;;;6.53;100.00;100957.50;5049984;28;20041;-66
2023/04/09 01:06:42;;;;;;;12.90;8.70;;;;;;;6.48;100.00;100964.94;5049866;28;20036;-70
2023/04/09 01:09:20;;;;;;;;;;;;;;;6.48;100.00;100952.97;5050211;28;20167;-68
2023/04/09 01:11:46;;;;;;;13.68;8.02;;;;;;;6.49;100.00;100946.16;5050063;28;19923;-67
2023/04/09 01:14:28;;;;;;;12.07;8.23;;;;;;;6.36;100.00;100952.22;5049762;28;20112;-70
2023/04/09 01:16:59;;;;;;;11.93;8.25;;;;;;;5.99;100.00;100907.25;5049872;28;20199;-70
2023/04/09 01:19:40;;;;;;;15.50;8.75;;;;;;;6.23;100.00;100953.16;5049940;28;20036;-70
2023/04/09 01:22:18;;;;;;;12.90;8.95;;;;;;;6.23;100.00;100950.59;5049349;28;20068;-66
2023/04/09 01:25:27;;;;;;;17.30;8.55;;;;;;;6.20;100.00;100929.00;5049937;28;20025;-70
2023/04/09 01:28:05;;;;;;;12.85;9.40;;;;;;;6.32;100.00;100955.41;4979202;28;20451;-66
2023/04/09 01:30:31;;;;;;;12.77;8.77;;;;;;;6.20;100.00;100942.69;4987666;28;20433;-70
2023/04/09 01:32:57;;;;;;;11.38;8.13;;;;;;;5.98;100.00;100918.31;4988128;28;20054;-69
2023/04/09 01:35:25;;;;;;;14.40;8.30;;;;;;;6.00;100.00;100908.13;4987247;28;20046;-70
2023/04/09 01:37:53;;;;;;;13.50;9.23;;;;;;;6.35;100.00;100959.84;4987515;28;20049;-70
2023/04/09 01:40:18;;;;;;;12.73;8.48;;;;;;;6.32;100.00;100951.16;4987735;28;20042;-67
2023/04/09 01:42:45;;;;;;;15.43;8.95;;;;;;;6.24;100.00;100956.59;4987753;28;20060;-69
2023/04/09 01:45:13;;;;;;;11.75;8.48;;;;;;;6.20;100.00;100960.63;4989079;28;20134;-68
2023/04/09 01:47:39;;;;;;;13.48;9.02;;;;;;;6.13;100.00;100958.47;4991467;28;20093;-70
2023/04/09 01:50:05;;;;;;;13.60;9.27;;;;;;;6.10;100.00;100960.88;4991074;28;20141;-70
2023/04/09 01:52:31;;;;;;;11.02;8.00;;;;;;;5.91;100.00;100958.78;4990922;28;20046;-67
2023/04/09 01:54:56;;;;;;;14.23;9.45;;;;;;;5.66;100.00;100941.84;4990949;28;20266;-70
2023/04/09 01:57:22;;;;;;;13.98;8.57;;;;;;;5.57;100.00;100934.47;4991662;28;20109;-70
2023/04/09 01:59:47;;;;;;;14.98;8.65;;;;;;;5.57;100.00;100939.59;4991000;28;20046;-70
2023/04/09 02:02:23;;;;;;;11.98;8.27;;;;;;;5.15;100.00;100864.31;4991328;28;20478;-70
2023/04/09 02:04:51;;;;;;;15.07;9.65;;;;;;;5.58;100.00;100938.81;5040052;28;20044;-68
2023/04/09 02:07:41;;;;;;;16.45;10.30;;;;;;;5.44;100.00;100944.69;5052635;28;20128;-71
2023/04/09 02:10:10;;;;;;;13.88;9.32;;;;;;;5.30;100.00;100941.22;5052867;28;20087;-68
2023/04/09 02:12:37;;;;;;;16.20;9.38;;;;;;;5.01;100.00;100927.41;5052712;28;20053;-66
2023/04/09 02:15:06;;;;;;;14.80;9.15;;;;;;;4.95;100.00;100938.09;5052895;28;20112;-69
2023/04/09 02:17:31;;;;;;;13.70;8.77;;;;;;;5.12;100.00;100946.00;5051888;28;20079;-69
2023/04/09 02:19:57;;;;;;;16.98;9.43;;;;;;;4.87;100.00;100895.75;5052212;28;20045;-70
2023/04/09 02:22:22;;;;;;;16.98;9.40;;;;;;;5.17;100.00;100947.19;5052652;28;20040;-69
2023/04/09 02:24:48;;;;;;;17.38;9.68;;;;;;;5.13;100.00;100937.53;5052734;28;20131;-70
2023/04/09 02:27:13;;;;;;;15.23;8.60;;;;;;;5.13;100.00;100942.66;5052577;28;20384;-69
2023/04/09 02:29:39;;;;;;;13.30;8.52;;;;;;;5.17;100.00;100945.53;5052717;28;20041;-69
2023/04/09 02:32:05;;;;;;;13.63;9.52;;;;;;;5.29;100.00;100954.81;5051636;28;20037;-65
2023/04/09 02:34:31;;;;;;;13.07;8.57;;;;;;;5.42;100.00;100962.53;5052893;28;20503;-68
2023/04/09 02:36:56;;;;;;;14.10;9.25;;;;;;;5.32;100.00;100940.53;5052727;28;20159;-67
2023/04/09 02:39:22;;;;;;;13.20;8.82;;;;;;;5.42;100.00;100957.41;5052776;28;20040;-66
2023/04/09 02:41:48;;;;;;;12.95;8.73;;;;;;;5.34;100.00;100963.69;5052989;28;20025;-72
2023/04/09 02:44:13;;;;;;;12.82;8.57;;;;;;;5.13;100.00;100965.69;5033793;28;20434;-65
2023/04/09 02:46:40;;;;;;;14.00;8.65;;;;;;;4.93;100.00;100967.78;5052625;28;20041;-65
2023/04/09 02:49:05;;;;;;;15.10;8.52;;;;;;;4.89;100.00;100967.50;5052714;28;20122;-66
2023/04/09 02:51:34;;;;;;;14.38;8.40;;;;;;;4.67;100.00;100956.69;5050119;28;20558;-67
2023/04/09 02:53:59;;;;;;;13.30;9.13;;;;;;;4.68;100.00;100967.81;5017207;28;20110;-71
2023/04/09 02:56:25;;;;;;;13.90;8.98;;;;;;;4.69;100.00;100944.88;5050485;28;20092;-69
2023/04/09 02:58:52;;;;;;;16.50;9.20;;;;;;;4.85;100.00;100961.28;5052422;28;20048;-72
2023/04/09 03:01:19;;;;;;;14.38;9.50;;;;;;;4.90;100.00;100949.69;5052330;28;20039;-72
2023/04/09 03:03:44;;;;;;;12.25;8.73;;;;;;;5.02;100.00;100964.97;5052355;28;20029;-66
2023/04/09 03:06:10;;;;;;;11.93;8.18;;;;;;;5.07;100.00;100967.84;5052042;28;20036;-66
2023/04/09 03:08:35;;;;;;;14.50;8.90;;;;;;;5.08;100.00;100959.38;5052267;28;20462;-69
2023/04/09 03:11:01;;;;;;;13.13;8.48;;;;;;;4.99;100.00;100965.66;5051703;28;20059;-70
2023/04/09 03:13:27;;;;;;;14.60;9.00;;;;;;;5.05;100.00;100966.84;5052311;28;20037;-67
2023/04/09 03:15:52;;;;;;;13.85;8.68;;;;;;;5.04;100.00;100972.78;5051976;28;20472;-68
2023/04/09 03:18:18;;;;;;;15.68;9.65;;;;;;;5.06;100.00;100972.09;5051898;28;20040;-69
2023/04/09 03:20:44;;;;;;;14.80;9.50;;;;;;;4.79;100.00;100964.31;5051912;28;20033;-69
2023/04/09 03:23:10;;;;;;;15.35;10.13;;;;;;;4.84;100.00;100970.63;5052036;28;20376;-66
2023/04/09 03:25:35;;;;;;;18.25;10.35;;;;;;;4.60;100.00;100936.59;5052217;28;20115;-66
2023/04/09 03:28:01;;;;;;;14.55;9.77;;;;;;;4.84;100.00;100982.53;5051867;28;20033;-70
2023/04/09 03:30:27;;;;;;;16.85;9.32;;;;;;;4.90;100.00;100974.38;5051602;28;20040;-72
2023/04/09 03:32:52;;;;;;;18.23;9.32;;;;;;;4.99;100.00;100980.13;5051516;28;20037;-71
2023/04/09 03:35:18;;;;;;;13.65;9.23;;;;;;;5.01;100.00;100982.00;5051302;28;20032;-71
2023/04/09 03:37:43;;;;;;;16.00;9.98;;;;;;;5.12;100.00;100979.28;5051659;28;20037;-66
2023/04/09 03:40:09;;;;;;;16.15;10.38;;;;;;;5.23;100.00;100985.13;5051567;28;20043;-70
2023/04/09 03:42:36;;;;;;;18.02;10.02;;;;;;;4.96;100.00;100934.75;5051583;28;20037;-67
2023/04/09 03:45:02;;;;;;;15.50;10.35;;;;;;;5.25;100.00;100975.88;5051081;28;20036;-68
2023/04/09 03:47:28;;;;;;;15.27;10.15;;;;;;;5.00;100.00;100928.19;5050265;28;20145;-69
2023/04/09 03:49:53;;;;;;;16.88;9.60;;;;;;;5.28;100.00;100981.19;5051413;28;20406;-73
2023/04/09 03:52:18;;;;;;;14.77;9.43;;;;;;;5.00;100.00;100940.97;5051476;28;20044;-66
2023/04/09 03:54:45;;;;;;;14.80;9.30;;;;;;;5.24;100.00;100995.44;5049027;28;20505;-70
2023/04/09 03:57:11;;;;;;;15.00;9.50;;;;;;;5.16;100.00;100988.97;5051065;28;20033;-70
2023/04/09 03:59:36;;;;;;;14.93;9.80;;;;;;;4.93;100.00;100985.72;5050814;28;20098;-68
2023/04/09 04:02:01;;;;;;;16.02;8.90;;;;;;;4.88;100.00;100993.88;5051211;28;20550;-67
2023/04/09 04:04:27;;;;;;;16.75;10.48;;;;;;;4.53;100.00;100944.63;5051139;28;20037;-66
2023/04/09 04:06:52;;;;;;;18.38;9.40;;;;;;;4.48;100.00;100956.22;5051208;28;20447;-69
2023/04/09 04:09:18;;;;;;;15.63;10.60;;;;;;;4.50;100.00;100958.09;5049470;28;20057;-69
2023/04/09 04:11:43;;;;;;;14.07;9.88;;;;;;;4.75;100.00;100981.88;5032006;28;20048;-70
2023/04/09 04:14:09;;;;;;;14.68;9.32;;;;;;;4.83;100.00;100985.88;5051164;28;20044;-71
2023/04/09 04:16:34;;;;;;;16.20;9.77;;;;;;;4.61;100.00;100953.72;5051047;28;20040;-72
2023/04/09 04:18:59;;;;;;;19.27;10.93;;;;;;;4.88;100.00;100992.19;5049464;28;20127;-66
2023/04/09 04:21:26;;;;;;;22.23;12.35;;;;;;;4.81;100.00;100980.66;5051326;28;20033;-66
2023/04/09 04:23:51;;;;;;;19.42;10.73;;;;;;;4.88;100.00;100987.06;5050657;28;20126;-70
2023/04/09 04:26:17;;;;;;;28.92;11.98;;;;;;;4.89;100.00;100982.84;5042657;28;20502;-69
2023/04/09 04:28:42;;;;;;;16.25;9.57;;;;;;;4.87;100.00;100990.41;5050918;28;20040;-69
2023/04/09 04:31:11;;;;;;;16.90;10.63;;;;;;;4.93;100.00;100995.94;5050875;28;20411;-70
2023/04/09 04:33:40;;;;;;;17.65;10.65;;;;;;;4.77;100.00;101000.81;5050426;28;20423;-70
2023/04/09 04:36:10;;;;;;;18.27;9.95;;;;;;;4.67;100.00;100994.16;5050495;28;20037;-67
2023/04/09 04:38:37;;;;;;;16.13;10.60;;;;;;;4.56;100.00;101000.19;5050624;28;20037;-70
2023/04/09 04:41:03;;;;;;;16.35;10.02;;;;;;;4.40;100.00;100995.69;5050514;28;20044;-67
2023/04/09 04:43:29;;;;;;;22.25;13.63;;;;;;;4.32;100.00;101010.47;5050522;28;20032;-69
2023/04/09 04:45:54;;;;;;;25.02;15.07;;;;;;;4.44;100.00;101005.38;5020987;28;20038;-70
2023/04/09 04:48:20;;;;;;;28.50;16.27;;;;;;;4.42;100.00;101009.47;5008313;28;20112;-69
2023/04/09 04:50:46;;;;;;;22.83;15.20;;;;;;;4.32;100.00;100978.13;5008261;28;20077;-65
2023/04/09 04:53:11;;;;;;;25.60;12.45;;;;;;;4.41;100.00;100974.44;5008293;28;20078;-72
2023/04/09 04:55:38;;;;;;;17.75;10.90;;;;;;;4.75;100.00;101013.50;5008082;28;20049;-67
2023/04/09 04:58:04;;;;;;;17.48;10.95;;;;;;;4.85;100.00;101009.91;5008163;28;20042;-67
2023/04/09 05:00:30;;;;;;;20.75;11.50;;;;;;;4.78;100.00;100984.69;4991689;28;20049;-67
2023/04/09 05:02:55;;;;;;;20.88;10.25;;;;;;;4.85;100.00;100982.63;5008047;28;20041;-66
2023/04/09 05:05:21;;;;;;;23.27;11.45;;;;;;;5.06;100.00;101017.25;5008134;28;20037;-70
2023/04/09 05:07:46;;;;;;;25.95;11.10;;;;;;;5.06;100.00;101010.47;5008138;28;20042;-70
2023/04/09 05:10:12;;;;;;;20.05;11.63;;;;;;;4.90;100.00;100964.13;5008007;28;20066;-68
2023/04/09 05:12:37;;;;;;;23.55;11.90;;;;;;;5.26;100.00;101011.81;5008193;28;20164;-67
2023/04/09 05:15:03;;;;;;;28.52;11.70;;;;;;;5.37;100.00;101015.09;5008047;28;20042;-67
2023/04/09 05:17:28;;;;;;;24.00;11.65;;;;;;;4.98;100.00;100933.16;5008385;28;20046;-67
2023/04/09 05:19:54;;;;;;;43.17;14.85;;;;;;;5.54;100.00;101011.06;5009415;28;20432;-71
2023/04/09 05:22:19;;;;;;;16.98;10.30;;;;;;;5.55;100.00;101000.06;5008028;28;20508;-69
2023/04/09 05:24:45;;;;;;;18.77;10.93;;;;;;;5.75;100.00;101015.84;5034597;28;20041;-72
2023/04/09 05:27:12;;;;;;;17.48;11.57;;;;;;;5.87;100.00;101014.09;5033920;28;20033;-67
2023/04/09 05:29:37;;;;;;;23.52;11.27;;;;;;;5.76;100.00;100964.69;5034235;28;20047;-67
2023/04/09 05:32:03;;;;;;;23.52;12.07;;;;;;;6.11;100.00;101008.78;5034114;28;20033;-70
2023/04/09 05:34:28;;;;;;;20.60;10.23;;;;;;;6.20;100.00;101011.03;5034106;28;20800;-66
2023/04/09 05:36:54;;;;;;;18.65;10.43;;;;;;;6.28;100.00;101013.31;5034028;28;20037;-67
2023/04/09 05:39:20;;;;;;;27.00;11.18;;;;;;;6.17;100.00;100970.72;5034261;28;20399;-70
2023/04/09 05:41:45;;;;;;;14.48;9.18;;;;;;;6.50;100.00;101014.63;5031525;28;20128;-66
2023/04/09 05:44:11;;;;;;;14.02;9.02;;;;;;;6.63;100.00;101011.16;5033876;28;20049;-69
2023/04/09 05:46:37;;;;;;;18.27;10.27;;;;;;;6.73;100.00;101020.28;5033968;28;20041;-70
2023/04/09 05:49:03;;;;;;;13.60;7.68;;;;;;;6.84;100.00;101013.25;5033817;28;20107;-66
2023/04/09 05:51:29;;;;;;;11.68;7.50;;;;;;;6.68;100.00;100972.94;5033494;28;20571;-69
2023/04/09 05:53:55;;;;;;;9.57;6.93;;;;;;;6.95;100.00;101015.69;5033705;28;20044;-66
2023/04/09 05:56:23;;;;;;;9.13;6.63;;;;;;;6.84;100.00;101016.72;5033593;28;20041;-68
2023/04/09 05:58:48;;;;;;;9.35;5.82;;;;;;;6.84;100.00;101019.28;5033702;28;20483;-66
2023/04/09 06:01:14;;;;;;;10.88;6.32;;;;;;;6.76;100.00;101011.09;5033561;28;20045;-67
2023/04/09 06:03:40;;;;;;;8.40;6.05;;;;;;;6.56;100.00;100968.84;5033670;28;20037;-70
2023/04/09 06:06:07;;;;;;;8.38;6.50;;;;;;;7.01;100.00;101019.41;5033546;28;20036;-71
2023/04/09 06:08:32;;;;;;;8.50;6.38;;;;;;;7.06;100.00;101008.59;5033577;28;20132;-69
2023/04/09 06:10:58;;;;;;;9.02;6.75;;;;;;;7.10;100.00;101013.16;5041637;28;20147;-69
2023/04/09 06:13:23;;;;;;;11.77;6.57;;;;;;;6.97;100.00;100982.41;5053317;28;20117;-68
2023/04/09 06:15:49;;;;;;;11.45;6.45;;;;;;;7.25;100.00;101013.19;5053165;28;20037;-68
2023/04/09 06:18:15;;;;;;;8.38;6.57;;;;;;;7.37;100.00;101014.69;5053069;28;20495;-71
2023/04/09 06:20:40;;;;;;;10.68;6.22;;;;;;;7.39;100.00;101018.22;5049080;28;20107;-70
2023/04/09 06:23:06;;;;;;;9.75;6.30;;;;;;;7.28;100.00;100989.34;5053389;28;20095;-66
2023/04/09 06:25:31;;;;;;;9.30;6.43;;;;;;;7.53;100.00;101017.34;5053147;28;20411;-67
2023/04/09 06:27:56;;;;;;;8.77;6.28;;;;;;;7.39;100.00;100985.72;5052865;28;20128;-70
2023/04/09 06:30:22;;;;;;;9.77;6.60;;;;;;;7.38;100.00;100985.66;5052963;28;20094;-67
2023/04/09 06:32:48;;;;;;;11.60;7.40;;;;;;;7.65;100.00;101024.00;5050357;28;20624;-68
2023/04/09 06:35:16;;;;;;;19.13;6.93;;;;;;;7.68;100.00;101026.75;5052934;28;20041;-70
2023/04/09 06:37:41;;;;;;;11.18;6.13;;;;;;;7.76;100.00;101036.69;5052740;28;20098;-70
2023/04/09 06:40:07;;;;;;;7.57;5.65;;;;;;;7.80;100.00;101041.97;5051401;28;20120;-66
2023/04/09 06:42:33;;;;;;;8.60;5.45;;;;;;;7.84;100.00;101018.22;5052821;28;20045;-67
2023/04/09 06:44:59;;;;;;;6.55;4.78;;;;;;;7.73;100.00;101035.63;5052735;28;20486;-69
2023/04/09 06:47:24;;;;;;;8.45;5.45;;;;;;;7.54;100.00;100984.81;5052730;28;20033;-71
2023/04/09 06:49:50;;;;;;;8.23;5.47;;;;;;;7.83;100.00;101014.78;5047054;28;20052;-72
2023/04/09 06:52:15;;;;;;;10.85;6.05;;;;;;;8.13;100.00;101026.72;5033185;28;20106;-70
2023/04/09 06:54:41;;;;;;;18.05;6.65;;;;;;;8.31;100.00;101007.16;5045305;28;20045;-70
2023/04/09 06:57:07;;;;;;;35.47;10.05;;;;;;;8.58;100.00;101020.66;5051432;28;20037;-69
2023/04/09 06:59:32;;;;;;;11.95;5.97;;;;;;;8.70;100.00;101022.13;5032855;28;20048;-72
2023/04/09 07:01:59;;;;;;;8.40;5.63;;;;;;;8.78;100.00;101014.78;5051653;28;20029;-70
2023/04/09 07:04:24;;;;;;;6.18;4.85;;;;;;;8.78;100.00;101022.53;5052056;28;20076;-66
2023/04/09 07:06:53;;;;;;;6.63;4.55;;;;;;;8.65;100.00;100995.22;5051906;28;20122;-69
2023/04/09 07:09:19;;;;;;;7.30;4.80;;;;;;;8.70;100.00;101027.25;5049190;28;20136;-67
2023/04/09 07:11:45;;;;;;;9.32;5.30;;;;;;;8.69;100.00;101025.50;5051489;28;20120;-67
2023/04/09 07:14:10;;;;;;;14.57;6.43;;;;;;;8.76;100.00;101025.03;5037684;28;20045;-66
2023/04/09 07:16:36;;;;;;;13.05;6.25;;;;;;;8.96;100.00;101009.72;5051586;28;20041;-67
2023/04/09 07:19:02;;;;;;;19.92;7.40;;;;;;;9.10;100.00;101016.47;5051444;28;20041;-70
2023/04/09 07:21:27;;;;;;;9.85;5.47;;;;;;;9.27;100.00;101009.63;5051801;28;20033;-70
2023/04/09 07:23:53;;;;;;;19.00;7.72;;;;;;;9.53;100.00;101010.03;5051566;28;20029;-67
2023/04/09 07:26:18;;;;;;;12.02;5.00;;;;;;;9.80;100.00;101007.94;5051636;28;20037;-73
2023/04/09 07:28:44;;;;;;;12.05;4.88;;;;;;;9.89;100.00;101015.22;5051554;28;20037;-66
2023/04/09 07:31:10;;;;;;;6.50;3.90;;;;;;;10.07;100.00;101020.41;5048829;28;20051;-67
2023/04/09 07:33:35;;;;;;;7.90;3.92;;;;;;;10.17;100.00;101011.41;5051621;28;20491;-70
2023/04/09 07:36:03;;;;;;;9.73;5.22;;;;;;;10.28;100.00;101006.72;5051209;28;20040;-70
2023/04/09 07:38:29;;;;;;;8.77;5.18;;;;;;;10.18;100.00;100980.50;5049800;28;20083;-67
2023/04/09 07:40:54;;;;;;;10.43;3.92;;;;;;;10.55;100.00;101014.91;5050577;28;20475;-68
2023/04/09 07:43:20;;;;;;;12.95;4.18;;;;;;;10.62;100.00;101016.09;5050424;28;20044;-67
2023/04/09 07:45:48;;;;;;;21.52;5.93;;;;;;;10.72;100.00;101009.63;5051111;28;20057;-69
2023/04/09 07:48:14;;;;;;;11.07;4.63;;;;;;;10.53;100.00;100980.41;5050944;28;20475;-70
2023/04/09 07:50:40;;;;;;;9.25;4.60;;;;;;;10.62;100.00;101005.75;5050975;28;20098;-68
2023/04/09 07:53:05;;;;;;;15.27;6.00;;;;;;;10.66;100.00;101010.22;5050813;28;20487;-73
2023/04/09 07:55:31;;;;;;;19.58;5.63;;;;;;;10.66;100.00;101024.00;5050931;28;20036;-69
2023/04/09 07:57:56;;;;;;;7.40;4.00;;;;;;;10.79;100.00;101015.13;5051204;28;20028;-69
2023/04/09 08:00:21;;;;;;;6.03;4.32;;;;;;;10.75;100.00;101023.53;5051087;28;20040;-66
2023/04/09 08:02:47;;;;;;;7.68;4.25;;;;;;;10.79;100.00;101003.91;5033714;28;20037;-70
2023/04/09 08:05:12;;;;;;;5.65;3.85;;;;;;;11.02;100.00;101015.28;5030127;28;20037;-66
2023/04/09 08:07:38;;;;;;;4.97;3.42;;;;;;;11.20;100.00;101029.81;5046096;28;20044;-69
2023/04/09 08:10:05;;;;;;;5.45;3.78;;;;;;;11.51;100.00;101018.19;5028516;28;20049;-65
2023/04/09 08:12:31;;;;;;;5.65;3.53;;;;;;;11.54;100.00;101019.22;5032246;28;20416;-68
2023/04/09 08:14:56;;;;;;;6.22;3.50;;;;;;;11.64;100.00;101017.91;5036709;28;20040;-69
2023/04/09 08:17:22;;;;;;;4.72;3.55;;;;;;;11.66;100.00;101024.00;5030666;28;20029;-65
2023/04/09 08:19:48;;;;;;;5.45;3.58;;;;;;;11.68;100.00;101008.56;5045482;28;20492;-70
2023/04/09 08:22:14;;;;;;;7.03;3.83;;;;;;;11.73;100.00;101013.09;5030325;28;20124;-69
2023/04/09 08:24:42;;;;;;;6.57;3.55;;;;;;;11.41;100.00;100949.69;5030178;28;20039;-69
2023/04/09 08:27:07;;;;;;;4.80;3.55;;;;;;;11.80;100.00;101017.69;5034359;28;20062;-69
2023/04/09 08:29:33;;;;;;;6.70;3.47;;;;;;;11.84;100.00;101017.81;5032911;28;20415;-68
2023/04/09 08:32:00;;;;;;;6.25;3.70;;;;;;;11.82;100.00;101016.06;5042622;28;20052;-70
2023/04/09 08:34:25;;;;;;;4.32;3.10;;;;;;;11.88;100.00;101025.75;5049912;28;20033;-70
2023/04/09 08:36:50;;;;;;;4.40;3.20;;;;;;;11.87;100.00;101008.47;5044553;28;20051;-68
2023/04/09 08:39:19;;;;;;;5.93;3.35;;;;;;;12.08;100.00;101017.94;5047738;28;20039;-69
2023/04/09 08:41:47;;;;;;;3.95;2.67;;;;;;;12.01;99.88;101008.19;5028920;28;20123;-71
2023/04/09 08:44:12;;;;;;;4.93;2.70;;;;;;;12.17;98.02;101025.19;5049727;28;20403;-70
2023/04/09 08:46:38;;;;;;;7.28;3.92;;;;;;;12.29;98.20;101012.72;5049644;28;20039;-69
2023/04/09 08:49:03;;;;;;;7.95;3.33;;;;;;;12.50;100.00;101002.31;5049814;28;20049;-69
2023/04/09 08:51:30;;;;;;;8.63;3.50;;;;;;;12.62;100.00;101013.13;5049358;28;20045;-69
2023/04/09 08:53:57;;;;;;;5.57;2.95;;;;;;;12.76;99.34;101015.31;5048214;28;20033;-67
2023/04/09 08:56:23;;;;;;;7.20;2.90;;;;;;;12.79;97.54;101005.97;5047136;28;20091;-69
2023/04/09 08:58:49;;;;;;;6.35;2.60;;;;;;;12.77;97.95;100970.47;5050003;28;20096;-68
2023/04/09 09:01:25;;;;;;;7.45;3.15;;;;;;;13.25;94.65;101009.31;5048664;28;20037;-67
2023/04/09 09:03:52;;;;;;;4.45;2.80;;;;;;;13.21;94.18;101009.19;5049546;28;20042;-69
2023/04/09 09:06:22;;;;;;;4.07;2.58;;;;;;;13.11;95.08;100982.91;5049538;28;20060;-68
2023/04/09 09:09:09;;;;;;;4.38;2.88;;;;;;;13.39;91.24;100998.56;5038685;28;20045;-66
2023/04/09 09:11:37;;;;;;;7.47;2.83;;;;;;;13.50;92.89;100997.22;5037199;28;20112;-68
2023/04/09 09:14:14;;;;;;;3.55;2.50;;;;;;;13.50;91.43;100988.56;5049556;28;20051;-69
2023/04/09 09:17:02;;;;;;;5.72;2.85;;;;;;;13.39;90.63;100990.78;5049526;28;20418;-69
2023/04/09 09:19:29;;;;;;;5.75;2.78;;;;;;;13.41;92.64;101002.97;5049815;28;20055;-68
2023/04/09 09:22:00;;;;;;;6.80;2.72;;;;;;;13.55;91.56;100984.41;5049855;28;20033;-68
2023/04/09 09:24:25;;;;;;;6.75;2.60;;;;;;;13.73;93.36;100986.72;5049674;28;20057;-67
2023/04/09 09:26:53;;;;;;;4.78;3.13;;;;;;;13.86;90.19;101001.84;5049630;28;20072;-68
2023/04/09 09:29:19;;;;;;;7.65;3.22;;;;;;;13.64;88.32;100965.66;5038291;28;20491;-71
2023/04/09 09:31:48;;;;;;;7.00;2.92;;;;;;;13.84;86.95;100989.66;5046836;28;20044;-71
2023/04/09 09:34:14;;;;;;;4.88;3.20;;;;;;;13.90;88.56;100977.75;5049723;28;20033;-74
2023/04/09 09:36:40;;;;;;;8.35;3.65;;;;;;;14.10;93.43;100979.22;5049639;28;20060;-71
2023/04/09 09:39:09;;;;;;;5.03;3.10;;;;;;;14.03;94.86;100981.63;5048971;28;20037;-68
2023/04/09 09:41:35;;;;;;;4.30;2.65;;;;;;;13.87;90.62;100966.41;5048090;28;20037;-71
2023/04/09 09:44:06;;;;;;;7.45;3.30;;;;;;;14.14;90.47;100981.94;5048528;28;20052;-68
2023/04/09 09:46:41;;;;;;;7.68;2.75;;;;;;;14.14;92.30;100955.97;5030697;28;20033;-71
2023/04/09 09:49:07;;;;;;;3.70;2.60;;;;;;;14.27;92.51;100966.72;5035563;28;20475;-72
2023/04/09 09:51:36;;;;;;;4.80;2.90;;;;;;;14.40;90.21;100974.94;5048996;28;20418;-72
2023/04/09 09:54:02;;;;;;;6.60;2.90;;;;;;;14.53;92.66;100975.31;5048526;28;20037;-70
2023/04/09 09:56:34;;;;;;;3.17;2.47;;;;;;;14.40;91.26;100964.56;5049721;28;20330;-69
2023/04/09 09:59:22;;;;;;;4.38;2.75;;;;;;;14.38;93.33;100960.13;5048253;28;20621;-71
2023/04/09 10:01:58;;;;;;;3.40;2.65;;;;;;;14.24;93.92;100894.81;5037547;28;20037;-74
2023/04/09 10:04:28;;;;;;;4.30;2.70;;;;;;;14.31;94.36;100883.75;5049554;28;20055;-71
2023/04/09 10:06:55;;;;;;;4.30;2.80;;;;;;;14.54;91.59;100954.56;5052093;28;20041;-70
2023/04/09 10:09:22;;;;;;;7.55;2.88;;;;;;;14.67;94.51;100955.81;5052403;28;20041;-71
2023/04/09 10:11:48;;;;;;;4.28;2.50;;;;;;;14.55;92.09;100939.84;5053217;28;20045;-72
2023/04/09 10:14:16;;;;;;;5.35;2.78;;;;;;;14.65;91.79;100943.63;5053051;28;20045;-70
2023/04/09 10:16:42;;;;;;;4.05;2.80;;;;;;;14.56;91.03;100939.00;5052774;28;20040;-70
2023/04/09 10:19:12;;;;;;;3.45;2.42;;;;;;;14.65;92.45;100934.09;5052720;28;20029;-69
2023/04/09 10:21:47;;;;;;;3.83;2.75;;;;;;;14.75;89.55;100934.34;5052746;28;20495;-68
2023/04/09 10:24:15;;;;;;;4.10;2.88;;;;;;;15.02;89.48;100932.47;5050475;28;20110;-71
2023/04/09 10:26:41;;;;;;;3.80;2.70;;;;;;;14.81;88.90;100895.53;5052249;28;20047;-71
2023/04/09 10:29:13;;;;;;;4.93;2.70;;;;;;;15.29;87.49;100930.53;5039681;28;20037;-69
2023/04/09 10:32:07;;;;;;;4.65;2.97;;;;;;;15.37;85.73;100909.06;5052702;28;20045;-68
2023/04/09 10:34:43;;;;;;;3.53;2.40;;;;;;;15.44;84.86;100930.03;5052941;28;20041;-71
2023/04/09 10:37:15;;;;;;;5.25;2.85;;;;;;;15.29;84.42;100928.84;5052632;28;20098;-72
2023/04/09 10:39:46;;;;;;;6.10;3.03;;;;;;;15.49;82.95;100925.84;5052344;28;20064;-68
2023/04/09 10:42:15;;;;;;;7.28;3.00;;;;;;;15.04;82.66;100807.72;5051268;28;20505;-74
2023/04/09 10:44:41;;;;;;;3.97;2.73;;;;;;;15.57;85.99;100903.47;5049796;28;20045;-67
2023/04/09 10:47:11;;;;;;;3.83;3.03;;;;;;;15.39;86.17;100897.84;5052542;28;20045;-68
2023/04/09 10:49:37;;;;;;;;;;;;;;;15.79;86.66;100909.19;5052437;28;20604;-73
2023/04/09 10:52:06;;;;;;;5.90;3.05;;;;;;;15.94;81.89;100904.34;5052213;28;19916;-70
2023/04/09 10:54:32;;;;;;;3.63;2.50;;;;;;;16.07;82.69;100894.19;5052066;28;20419;-70
2023/04/09 10:57:06;;;;;;;4.75;2.65;;;;;;;16.25;84.89;100891.09;5052314;28;20037;-68
2023/04/09 10:59:40;;;;;;;4.93;2.63;;;;;;;16.00;81.40;100883.66;5051829;28;20044;-74
2023/04/09 11:02:17;;;;;;;3.47;2.55;;;;;;;16.17;78.18;100885.72;5052107;28;20036;-72
2023/04/09 11:04:42;;;;;;;4.22;2.92;;;;;;;16.38;78.19;100874.00;5049789;28;20119;-68
2023/04/09 11:07:08;;;;;;;4.75;2.30;;;;;;;16.37;76.09;100872.22;5052009;28;20536;-71
2023/04/09 11:09:35;;;;;;;3.13;2.50;;;;;;;16.47;81.95;100835.06;5051971;28;20049;-68
2023/04/09 11:12:00;;;;;;;4.32;2.53;;;;;;;16.56;79.58;100857.81;5051880;28;20033;-71
2023/04/09 11:14:26;;;;;;;4.10;2.70;;;;;;;16.40;78.21;100860.13;5051920;28;20059;-70
2023/04/09 11:16:52;;;;;;;4.55;3.15;;;;;;;16.38;78.88;100853.16;5051898;28;20040;-70
2023/04/09 11:19:19;;;;;;;4.03;3.05;;;;;;;16.46;76.89;100844.63;5050617;28;20035;-71